Etusivu
METAR-TAF:

METAR-TAF

Lentoasemat :

Hōfu, Japani

Leveyspiiri: 34-02N, Pituuspiiri: 131-33E, korkeus merenpinnasta: 2 m

Tämänhetkinen sää

Tämä raportti tehtiin 13 tuntia ja 15 minuuttia sitten, kello 06.36 UTC
Tuuli 10 kn etelästä/lounaasta
Lämpötila 13°C
Kosteus 72%
Ilmanpaine 1014 hPa
Näkyvyys 10 km tai enemmän
Muutamia pilviä 2000 ft:n korkeudessa
Hajanaisia pilviä 3000 ft:n korkeudessa

METAR: RJOF 190636Z 20010KT 9999 FEW020 SCT030 13/08 Q1014 RMK 1CU020 4CU030 A2995

Aika: 04:51 (19:51 UTC)


TAF: puuttuu

Säähavainnot ja -ennusteet yli 4000 lentoasemalta (METAR- ja TAF-raportit).

Käytössä olevat sääasemat on merkitty karttaan keltaisilla ja punaisilla pisteillä.

Aseta hiiri pisteen päälle nähdäksesi sääaseman nimen.

Klikkaa sitten nähdäksesi säähavainnot ja -ennusteet.

Kartan vaihtaminen: klikkaa mustalla rastilla varustettuja vihreitä pisteitä, niin voit zoomata sisään; viivalla varustettua vihreää pistettä, niin voit zoomata ulos tai vihreitä nuolia, niin pääset viereisille kartoille.


METAR-TAF: